sensor_id;sensor_type;location;lat;lon;timestamp;P1;durP1;ratioP1;P2;durP2;ratioP2
60612;SDS011;46443;59.792;17.626;2023-05-07T00:00:10;5.97;;;2.20;;
60612;SDS011;46443;59.792;17.626;2023-05-07T00:02:37;3.10;;;2.13;;
60612;SDS011;46443;59.792;17.626;2023-05-07T00:05:03;5.38;;;2.50;;
60612;SDS011;46443;59.792;17.626;2023-05-07T00:07:29;3.40;;;2.10;;
60612;SDS011;46443;59.792;17.626;2023-05-07T00:09:55;4.32;;;2.30;;
60612;SDS011;46443;59.792;17.626;2023-05-07T00:12:21;4.05;;;2.17;;
60612;SDS011;46443;59.792;17.626;2023-05-07T00:14:47;3.95;;;2.20;;
60612;SDS011;46443;59.792;17.626;2023-05-07T00:17:13;4.22;;;2.20;;
60612;SDS011;46443;59.792;17.626;2023-05-07T00:19:39;3.47;;;1.95;;
60612;SDS011;46443;59.792;17.626;2023-05-07T00:22:06;2.97;;;1.70;;
60612;SDS011;46443;59.792;17.626;2023-05-07T00:24:32;2.95;;;2.00;;
60612;SDS011;46443;59.792;17.626;2023-05-07T00:26:58;3.95;;;2.00;;
60612;SDS011;46443;59.792;17.626;2023-05-07T00:29:25;3.33;;;2.00;;
60612;SDS011;46443;59.792;17.626;2023-05-07T00:31:51;3.72;;;2.00;;
60612;SDS011;46443;59.792;17.626;2023-05-07T00:34:19;3.75;;;2.15;;
60612;SDS011;46443;59.792;17.626;2023-05-07T00:36:45;4.05;;;2.40;;
60612;SDS011;46443;59.792;17.626;2023-05-07T00:39:11;3.22;;;2.00;;
60612;SDS011;46443;59.792;17.626;2023-05-07T00:41:37;5.15;;;2.40;;
60612;SDS011;46443;59.792;17.626;2023-05-07T00:44:04;5.00;;;2.10;;
60612;SDS011;46443;59.792;17.626;2023-05-07T00:46:30;3.38;;;1.83;;
60612;SDS011;46443;59.792;17.626;2023-05-07T00:48:56;2.88;;;2.00;;
60612;SDS011;46443;59.792;17.626;2023-05-07T00:51:23;4.40;;;2.10;;
60612;SDS011;46443;59.792;17.626;2023-05-07T00:53:50;3.67;;;2.10;;
60612;SDS011;46443;59.792;17.626;2023-05-07T00:56:16;3.85;;;2.25;;
60612;SDS011;46443;59.792;17.626;2023-05-07T00:58:42;4.00;;;2.13;;
60612;SDS011;46443;59.792;17.626;2023-05-07T01:01:08;3.85;;;2.05;;
60612;SDS011;46443;59.792;17.626;2023-05-07T01:03:34;3.33;;;1.98;;
60612;SDS011;46443;59.792;17.626;2023-05-07T01:06:00;4.55;;;2.65;;
60612;SDS011;46443;59.792;17.626;2023-05-07T01:08:27;3.53;;;2.20;;
60612;SDS011;46443;59.792;17.626;2023-05-07T01:10:55;3.80;;;2.10;;
60612;SDS011;46443;59.792;17.626;2023-05-07T01:13:21;4.55;;;2.03;;
60612;SDS011;46443;59.792;17.626;2023-05-07T01:15:48;2.85;;;2.10;;
60612;SDS011;46443;59.792;17.626;2023-05-07T01:18:14;3.45;;;2.00;;
60612;SDS011;46443;59.792;17.626;2023-05-07T01:20:40;4.30;;;2.28;;
60612;SDS011;46443;59.792;17.626;2023-05-07T01:23:07;3.45;;;2.10;;
60612;SDS011;46443;59.792;17.626;2023-05-07T01:25:33;4.22;;;2.20;;
60612;SDS011;46443;59.792;17.626;2023-05-07T01:28:00;2.97;;;2.05;;
60612;SDS011;46443;59.792;17.626;2023-05-07T01:30:26;4.30;;;2.20;;
60612;SDS011;46443;59.792;17.626;2023-05-07T01:32:56;3.42;;;2.17;;
60612;SDS011;46443;59.792;17.626;2023-05-07T01:35:28;3.97;;;1.90;;
60612;SDS011;46443;59.792;17.626;2023-05-07T01:37:55;5.07;;;2.10;;
60612;SDS011;46443;59.792;17.626;2023-05-07T01:40:21;3.22;;;2.08;;
60612;SDS011;46443;59.792;17.626;2023-05-07T01:42:47;3.95;;;2.20;;
60612;SDS011;46443;59.792;17.626;2023-05-07T01:45:13;3.03;;;1.88;;
60612;SDS011;46443;59.792;17.626;2023-05-07T01:47:39;3.80;;;2.13;;
60612;SDS011;46443;59.792;17.626;2023-05-07T01:50:06;4.78;;;2.28;;
60612;SDS011;46443;59.792;17.626;2023-05-07T01:52:38;3.58;;;2.03;;
60612;SDS011;46443;59.792;17.626;2023-05-07T01:55:05;4.10;;;2.05;;
60612;SDS011;46443;59.792;17.626;2023-05-07T01:57:31;3.33;;;2.00;;
60612;SDS011;46443;59.792;17.626;2023-05-07T01:59:57;3.00;;;1.90;;
60612;SDS011;46443;59.792;17.626;2023-05-07T02:02:23;4.03;;;2.10;;
60612;SDS011;46443;59.792;17.626;2023-05-07T02:04:50;3.80;;;2.22;;
60612;SDS011;46443;59.792;17.626;2023-05-07T02:07:16;3.65;;;2.13;;
60612;SDS011;46443;59.792;17.626;2023-05-07T02:09:42;3.67;;;2.03;;
60612;SDS011;46443;59.792;17.626;2023-05-07T02:12:08;5.32;;;2.20;;
60612;SDS011;46443;59.792;17.626;2023-05-07T02:14:34;4.43;;;2.30;;
60612;SDS011;46443;59.792;17.626;2023-05-07T02:17:00;3.28;;;2.05;;
60612;SDS011;46443;59.792;17.626;2023-05-07T02:19:26;2.72;;;1.80;;
60612;SDS011;46443;59.792;17.626;2023-05-07T02:21:53;3.50;;;2.20;;
60612;SDS011;46443;59.792;17.626;2023-05-07T02:24:19;4.72;;;2.72;;
60612;SDS011;46443;59.792;17.626;2023-05-07T02:26:45;3.47;;;1.95;;
60612;SDS011;46443;59.792;17.626;2023-05-07T02:29:11;3.58;;;2.20;;
60612;SDS011;46443;59.792;17.626;2023-05-07T02:31:37;4.00;;;1.90;;
60612;SDS011;46443;59.792;17.626;2023-05-07T02:34:04;4.88;;;2.00;;
60612;SDS011;46443;59.792;17.626;2023-05-07T02:36:30;3.92;;;2.10;;
60612;SDS011;46443;59.792;17.626;2023-05-07T02:38:56;4.50;;;2.25;;
60612;SDS011;46443;59.792;17.626;2023-05-07T02:41:22;3.75;;;2.30;;
60612;SDS011;46443;59.792;17.626;2023-05-07T02:43:48;4.38;;;2.15;;
60612;SDS011;46443;59.792;17.626;2023-05-07T02:46:14;4.60;;;2.38;;
60612;SDS011;46443;59.792;17.626;2023-05-07T02:48:40;4.28;;;2.47;;
60612;SDS011;46443;59.792;17.626;2023-05-07T02:51:07;3.65;;;2.08;;
60612;SDS011;46443;59.792;17.626;2023-05-07T02:53:33;6.72;;;2.28;;
60612;SDS011;46443;59.792;17.626;2023-05-07T02:55:59;3.65;;;2.20;;
60612;SDS011;46443;59.792;17.626;2023-05-07T02:58:26;3.80;;;2.20;;
60612;SDS011;46443;59.792;17.626;2023-05-07T03:00:52;4.85;;;2.58;;
60612;SDS011;46443;59.792;17.626;2023-05-07T03:03:19;4.38;;;2.38;;
60612;SDS011;46443;59.792;17.626;2023-05-07T03:05:45;5.45;;;2.25;;
60612;SDS011;46443;59.792;17.626;2023-05-07T03:08:11;3.70;;;2.20;;
60612;SDS011;46443;59.792;17.626;2023-05-07T03:10:38;4.10;;;2.25;;
60612;SDS011;46443;59.792;17.626;2023-05-07T03:13:04;3.63;;;2.28;;
60612;SDS011;46443;59.792;17.626;2023-05-07T03:15:30;3.80;;;2.05;;
60612;SDS011;46443;59.792;17.626;2023-05-07T03:17:56;4.22;;;2.33;;
60612;SDS011;46443;59.792;17.626;2023-05-07T03:20:22;6.25;;;2.50;;
60612;SDS011;46443;59.792;17.626;2023-05-07T03:22:48;3.65;;;2.30;;
60612;SDS011;46443;59.792;17.626;2023-05-07T03:25:14;3.88;;;2.30;;
60612;SDS011;46443;59.792;17.626;2023-05-07T03:27:40;4.22;;;2.20;;
60612;SDS011;46443;59.792;17.626;2023-05-07T03:30:09;3.67;;;2.33;;
60612;SDS011;46443;59.792;17.626;2023-05-07T03:32:36;5.25;;;2.30;;
60612;SDS011;46443;59.792;17.626;2023-05-07T03:35:02;7.00;;;2.53;;
60612;SDS011;46443;59.792;17.626;2023-05-07T03:37:28;3.30;;;2.10;;
60612;SDS011;46443;59.792;17.626;2023-05-07T03:39:54;5.32;;;2.40;;
60612;SDS011;46443;59.792;17.626;2023-05-07T03:42:20;7.85;;;2.60;;
60612;SDS011;46443;59.792;17.626;2023-05-07T03:44:46;5.25;;;2.58;;
60612;SDS011;46443;59.792;17.626;2023-05-07T03:47:12;4.05;;;2.33;;
60612;SDS011;46443;59.792;17.626;2023-05-07T03:49:39;4.75;;;2.65;;
60612;SDS011;46443;59.792;17.626;2023-05-07T03:52:05;4.95;;;2.20;;
60612;SDS011;46443;59.792;17.626;2023-05-07T03:54:31;4.47;;;2.40;;
60612;SDS011;46443;59.792;17.626;2023-05-07T03:56:57;3.90;;;2.15;;
60612;SDS011;46443;59.792;17.626;2023-05-07T03:59:23;4.35;;;2.22;;
60612;SDS011;46443;59.792;17.626;2023-05-07T04:01:49;4.28;;;2.30;;
60612;SDS011;46443;59.792;17.626;2023-05-07T04:04:16;3.95;;;2.40;;
60612;SDS011;46443;59.792;17.626;2023-05-07T04:06:42;4.97;;;2.30;;
60612;SDS011;46443;59.792;17.626;2023-05-07T04:09:08;5.57;;;2.80;;
60612;SDS011;46443;59.792;17.626;2023-05-07T04:11:35;4.47;;;2.20;;
60612;SDS011;46443;59.792;17.626;2023-05-07T04:14:01;5.43;;;2.30;;
60612;SDS011;46443;59.792;17.626;2023-05-07T04:16:27;5.80;;;2.53;;
60612;SDS011;46443;59.792;17.626;2023-05-07T04:18:53;6.35;;;2.50;;
60612;SDS011;46443;59.792;17.626;2023-05-07T04:21:19;4.43;;;2.20;;
60612;SDS011;46443;59.792;17.626;2023-05-07T04:23:46;4.07;;;2.20;;
60612;SDS011;46443;59.792;17.626;2023-05-07T04:26:12;3.60;;;2.38;;
60612;SDS011;46443;59.792;17.626;2023-05-07T04:28:38;4.47;;;2.30;;
60612;SDS011;46443;59.792;17.626;2023-05-07T04:31:05;3.63;;;2.20;;
60612;SDS011;46443;59.792;17.626;2023-05-07T04:33:32;3.72;;;1.98;;
60612;SDS011;46443;59.792;17.626;2023-05-07T04:35:58;5.03;;;2.60;;
60612;SDS011;46443;59.792;17.626;2023-05-07T04:38:30;3.38;;;2.17;;
60612;SDS011;46443;59.792;17.626;2023-05-07T04:40:57;5.10;;;2.30;;
60612;SDS011;46443;59.792;17.626;2023-05-07T04:43:23;4.20;;;2.40;;
60612;SDS011;46443;59.792;17.626;2023-05-07T04:45:50;4.50;;;2.30;;
60612;SDS011;46443;59.792;17.626;2023-05-07T04:48:17;6.00;;;3.10;;
60612;SDS011;46443;59.792;17.626;2023-05-07T04:50:48;5.43;;;3.03;;
60612;SDS011;46443;59.792;17.626;2023-05-07T04:53:15;5.28;;;2.38;;
60612;SDS011;46443;59.792;17.626;2023-05-07T04:55:41;4.78;;;2.75;;
60612;SDS011;46443;59.792;17.626;2023-05-07T04:58:07;4.63;;;2.20;;
60612;SDS011;46443;59.792;17.626;2023-05-07T05:00:33;4.40;;;2.50;;
60612;SDS011;46443;59.792;17.626;2023-05-07T05:03:00;4.88;;;2.63;;
60612;SDS011;46443;59.792;17.626;2023-05-07T05:05:26;4.82;;;2.75;;
60612;SDS011;46443;59.792;17.626;2023-05-07T05:07:52;4.18;;;2.60;;
60612;SDS011;46443;59.792;17.626;2023-05-07T05:10:18;5.68;;;3.10;;
60612;SDS011;46443;59.792;17.626;2023-05-07T05:12:44;5.32;;;3.17;;
60612;SDS011;46443;59.792;17.626;2023-05-07T05:15:13;8.55;;;3.42;;
60612;SDS011;46443;59.792;17.626;2023-05-07T05:17:39;6.47;;;3.60;;
60612;SDS011;46443;59.792;17.626;2023-05-07T05:20:05;6.85;;;3.33;;
60612;SDS011;46443;59.792;17.626;2023-05-07T05:22:32;5.00;;;2.80;;
60612;SDS011;46443;59.792;17.626;2023-05-07T05:24:58;4.35;;;2.67;;
60612;SDS011;46443;59.792;17.626;2023-05-07T05:27:25;6.20;;;3.40;;
60612;SDS011;46443;59.792;17.626;2023-05-07T05:29:51;5.85;;;2.83;;
60612;SDS011;46443;59.792;17.626;2023-05-07T05:32:17;7.40;;;3.00;;
60612;SDS011;46443;59.792;17.626;2023-05-07T05:34:43;5.00;;;2.75;;
60612;SDS011;46443;59.792;17.626;2023-05-07T05:37:09;5.30;;;2.60;;
60612;SDS011;46443;59.792;17.626;2023-05-07T05:39:35;5.45;;;3.30;;
60612;SDS011;46443;59.792;17.626;2023-05-07T05:42:01;5.10;;;2.97;;
60612;SDS011;46443;59.792;17.626;2023-05-07T05:44:27;5.10;;;3.00;;
60612;SDS011;46443;59.792;17.626;2023-05-07T05:46:54;6.15;;;3.60;;
60612;SDS011;46443;59.792;17.626;2023-05-07T05:49:22;4.95;;;2.75;;
60612;SDS011;46443;59.792;17.626;2023-05-07T05:51:48;4.82;;;2.90;;
60612;SDS011;46443;59.792;17.626;2023-05-07T05:54:14;5.68;;;3.00;;
60612;SDS011;46443;59.792;17.626;2023-05-07T05:56:41;5.38;;;3.30;;
60612;SDS011;46443;59.792;17.626;2023-05-07T05:59:07;5.22;;;3.17;;
60612;SDS011;46443;59.792;17.626;2023-05-07T06:01:33;4.60;;;2.78;;
60612;SDS011;46443;59.792;17.626;2023-05-07T06:03:59;5.57;;;3.45;;
60612;SDS011;46443;59.792;17.626;2023-05-07T06:06:25;5.75;;;3.30;;
60612;SDS011;46443;59.792;17.626;2023-05-07T06:08:52;5.20;;;2.72;;
60612;SDS011;46443;59.792;17.626;2023-05-07T06:11:18;4.22;;;2.72;;
60612;SDS011;46443;59.792;17.626;2023-05-07T06:13:45;6.07;;;3.30;;
60612;SDS011;46443;59.792;17.626;2023-05-07T06:16:11;5.05;;;3.00;;
60612;SDS011;46443;59.792;17.626;2023-05-07T06:18:37;6.18;;;3.30;;
60612;SDS011;46443;59.792;17.626;2023-05-07T06:21:03;5.32;;;2.83;;
60612;SDS011;46443;59.792;17.626;2023-05-07T06:23:29;5.25;;;3.03;;
60612;SDS011;46443;59.792;17.626;2023-05-07T06:25:55;5.53;;;2.83;;
60612;SDS011;46443;59.792;17.626;2023-05-07T06:28:21;5.75;;;3.30;;
60612;SDS011;46443;59.792;17.626;2023-05-07T06:30:47;3.90;;;2.50;;
60612;SDS011;46443;59.792;17.626;2023-05-07T06:33:15;4.60;;;2.75;;
60612;SDS011;46443;59.792;17.626;2023-05-07T06:35:41;7.55;;;2.78;;
60612;SDS011;46443;59.792;17.626;2023-05-07T06:38:07;4.55;;;2.80;;
60612;SDS011;46443;59.792;17.626;2023-05-07T06:40:33;5.57;;;2.80;;
60612;SDS011;46443;59.792;17.626;2023-05-07T06:42:59;4.97;;;2.60;;
60612;SDS011;46443;59.792;17.626;2023-05-07T06:45:25;4.15;;;2.85;;
60612;SDS011;46443;59.792;17.626;2023-05-07T06:47:51;5.30;;;2.50;;
60612;SDS011;46443;59.792;17.626;2023-05-07T06:50:17;4.40;;;2.57;;
60612;SDS011;46443;59.792;17.626;2023-05-07T06:52:44;3.90;;;2.50;;
60612;SDS011;46443;59.792;17.626;2023-05-07T06:55:10;5.00;;;2.40;;
60612;SDS011;46443;59.792;17.626;2023-05-07T06:57:36;4.57;;;2.50;;
60612;SDS011;46443;59.792;17.626;2023-05-07T07:00:02;4.23;;;2.50;;
60612;SDS011;46443;59.792;17.626;2023-05-07T07:02:29;4.87;;;2.47;;
60612;SDS011;46443;59.792;17.626;2023-05-07T07:04:55;3.67;;;2.27;;
60612;SDS011;46443;59.792;17.626;2023-05-07T07:07:21;4.17;;;2.33;;
60612;SDS011;46443;59.792;17.626;2023-05-07T07:09:47;6.73;;;2.50;;
60612;SDS011;46443;59.792;17.626;2023-05-07T07:12:13;3.70;;;2.20;;
60612;SDS011;46443;59.792;17.626;2023-05-07T07:14:39;3.87;;;2.40;;
60612;SDS011;46443;59.792;17.626;2023-05-07T07:17:05;4.23;;;1.90;;
60612;SDS011;46443;59.792;17.626;2023-05-07T07:19:31;4.83;;;2.40;;
60612;SDS011;46443;59.792;17.626;2023-05-07T07:21:57;4.53;;;2.37;;
60612;SDS011;46443;59.792;17.626;2023-05-07T07:24:23;4.07;;;2.40;;
60612;SDS011;46443;59.792;17.626;2023-05-07T07:26:49;4.07;;;2.00;;
60612;SDS011;46443;59.792;17.626;2023-05-07T07:29:15;5.30;;;2.57;;
60612;SDS011;46443;59.792;17.626;2023-05-07T07:31:43;3.30;;;2.30;;
60612;SDS011;46443;59.792;17.626;2023-05-07T07:34:09;3.23;;;1.90;;
60612;SDS011;46443;59.792;17.626;2023-05-07T07:36:35;4.17;;;2.00;;
60612;SDS011;46443;59.792;17.626;2023-05-07T07:39:01;4.53;;;2.40;;
60612;SDS011;46443;59.792;17.626;2023-05-07T07:41:27;4.00;;;2.47;;
60612;SDS011;46443;59.792;17.626;2023-05-07T07:43:53;5.47;;;2.50;;
60612;SDS011;46443;59.792;17.626;2023-05-07T07:46:19;3.77;;;2.40;;
60612;SDS011;46443;59.792;17.626;2023-05-07T07:48:46;5.93;;;2.50;;
60612;SDS011;46443;59.792;17.626;2023-05-07T07:51:12;3.60;;;2.17;;
60612;SDS011;46443;59.792;17.626;2023-05-07T07:53:38;6.43;;;3.00;;
60612;SDS011;46443;59.792;17.626;2023-05-07T07:56:04;3.93;;;2.73;;
60612;SDS011;46443;59.792;17.626;2023-05-07T07:58:31;3.77;;;2.20;;
60612;SDS011;46443;59.792;17.626;2023-05-07T08:00:57;4.00;;;2.30;;
60612;SDS011;46443;59.792;17.626;2023-05-07T08:03:23;3.77;;;2.10;;
60612;SDS011;46443;59.792;17.626;2023-05-07T08:05:49;4.60;;;2.57;;
60612;SDS011;46443;59.792;17.626;2023-05-07T08:08:16;3.43;;;2.30;;
60612;SDS011;46443;59.792;17.626;2023-05-07T08:10:42;3.80;;;2.17;;
60612;SDS011;46443;59.792;17.626;2023-05-07T08:13:08;3.53;;;2.43;;
60612;SDS011;46443;59.792;17.626;2023-05-07T08:15:34;3.40;;;2.40;;
60612;SDS011;46443;59.792;17.626;2023-05-07T08:18:01;3.47;;;2.03;;
60612;SDS011;46443;59.792;17.626;2023-05-07T08:20:28;3.40;;;2.20;;
60612;SDS011;46443;59.792;17.626;2023-05-07T08:22:54;4.67;;;2.10;;
60612;SDS011;46443;59.792;17.626;2023-05-07T08:25:20;2.87;;;2.00;;
60612;SDS011;46443;59.792;17.626;2023-05-07T08:27:46;7.37;;;2.43;;
60612;SDS011;46443;59.792;17.626;2023-05-07T08:30:13;3.53;;;2.03;;
60612;SDS011;46443;59.792;17.626;2023-05-07T08:32:39;3.77;;;2.30;;
60612;SDS011;46443;59.792;17.626;2023-05-07T08:35:05;3.40;;;1.90;;
60612;SDS011;46443;59.792;17.626;2023-05-07T08:37:31;5.07;;;2.20;;
60612;SDS011;46443;59.792;17.626;2023-05-07T08:39:57;3.57;;;2.10;;
60612;SDS011;46443;59.792;17.626;2023-05-07T08:42:23;3.27;;;2.07;;
60612;SDS011;46443;59.792;17.626;2023-05-07T08:44:50;3.60;;;1.90;;
60612;SDS011;46443;59.792;17.626;2023-05-07T08:47:20;3.43;;;2.00;;
60612;SDS011;46443;59.792;17.626;2023-05-07T08:49:48;3.80;;;1.93;;
60612;SDS011;46443;59.792;17.626;2023-05-07T08:52:15;3.63;;;1.90;;
60612;SDS011;46443;59.792;17.626;2023-05-07T08:54:41;3.33;;;2.00;;
60612;SDS011;46443;59.792;17.626;2023-05-07T08:57:07;1.90;;;1.70;;
60612;SDS011;46443;59.792;17.626;2023-05-07T08:59:34;4.17;;;1.80;;
60612;SDS011;46443;59.792;17.626;2023-05-07T09:02:01;4.07;;;1.93;;
60612;SDS011;46443;59.792;17.626;2023-05-07T09:04:27;3.00;;;1.70;;
60612;SDS011;46443;59.792;17.626;2023-05-07T09:06:54;4.10;;;2.10;;
60612;SDS011;46443;59.792;17.626;2023-05-07T09:09:21;2.50;;;1.70;;
60612;SDS011;46443;59.792;17.626;2023-05-07T09:11:47;2.73;;;1.80;;
60612;SDS011;46443;59.792;17.626;2023-05-07T09:14:13;3.67;;;1.87;;
60612;SDS011;46443;59.792;17.626;2023-05-07T09:16:39;3.83;;;1.90;;
60612;SDS011;46443;59.792;17.626;2023-05-07T09:19:05;3.17;;;2.00;;
60612;SDS011;46443;59.792;17.626;2023-05-07T09:21:32;2.67;;;1.77;;
60612;SDS011;46443;59.792;17.626;2023-05-07T09:23:58;4.20;;;2.00;;
60612;SDS011;46443;59.792;17.626;2023-05-07T09:26:24;5.27;;;1.90;;
60612;SDS011;46443;59.792;17.626;2023-05-07T09:28:51;3.53;;;1.70;;
60612;SDS011;46443;59.792;17.626;2023-05-07T09:31:17;2.70;;;1.57;;
60612;SDS011;46443;59.792;17.626;2023-05-07T09:33:43;4.77;;;2.10;;
60612;SDS011;46443;59.792;17.626;2023-05-07T09:36:09;4.80;;;1.77;;
60612;SDS011;46443;59.792;17.626;2023-05-07T09:38:36;2.80;;;1.60;;
60612;SDS011;46443;59.792;17.626;2023-05-07T09:41:09;3.57;;;1.83;;
60612;SDS011;46443;59.792;17.626;2023-05-07T09:43:36;2.30;;;1.80;;
60612;SDS011;46443;59.792;17.626;2023-05-07T09:46:03;3.93;;;1.90;;
60612;SDS011;46443;59.792;17.626;2023-05-07T09:48:32;2.70;;;1.70;;
60612;SDS011;46443;59.792;17.626;2023-05-07T09:50:58;2.30;;;1.57;;
60612;SDS011;46443;59.792;17.626;2023-05-07T09:53:28;2.35;;;1.55;;
60612;SDS011;46443;59.792;17.626;2023-05-07T09:55:55;2.80;;;1.70;;
60612;SDS011;46443;59.792;17.626;2023-05-07T09:58:22;1.97;;;1.60;;
60612;SDS011;46443;59.792;17.626;2023-05-07T10:00:48;1.93;;;1.67;;
60612;SDS011;46443;59.792;17.626;2023-05-07T10:03:15;2.73;;;1.80;;
60612;SDS011;46443;59.792;17.626;2023-05-07T10:05:41;4.37;;;1.83;;
60612;SDS011;46443;59.792;17.626;2023-05-07T10:08:09;3.47;;;2.17;;
60612;SDS011;46443;59.792;17.626;2023-05-07T10:10:35;3.97;;;2.00;;
60612;SDS011;46443;59.792;17.626;2023-05-07T10:13:01;2.57;;;1.60;;
60612;SDS011;46443;59.792;17.626;2023-05-07T10:15:30;3.27;;;1.97;;
60612;SDS011;46443;59.792;17.626;2023-05-07T10:17:57;3.60;;;1.87;;
60612;SDS011;46443;59.792;17.626;2023-05-07T10:20:23;3.30;;;1.70;;
60612;SDS011;46443;59.792;17.626;2023-05-07T10:22:50;3.37;;;1.80;;
60612;SDS011;46443;59.792;17.626;2023-05-07T10:25:18;3.77;;;1.83;;
60612;SDS011;46443;59.792;17.626;2023-05-07T10:27:46;2.33;;;1.70;;
60612;SDS011;46443;59.792;17.626;2023-05-07T10:32:55;2.40;;;1.73;;
60612;SDS011;46443;59.792;17.626;2023-05-07T10:35:24;2.37;;;1.77;;
60612;SDS011;46443;59.792;17.626;2023-05-07T10:37:51;4.10;;;1.80;;
60612;SDS011;46443;59.792;17.626;2023-05-07T10:40:17;3.93;;;1.80;;
60612;SDS011;46443;59.792;17.626;2023-05-07T10:42:54;4.27;;;1.97;;
60612;SDS011;46443;59.792;17.626;2023-05-07T10:45:21;2.83;;;1.60;;
60612;SDS011;46443;59.792;17.626;2023-05-07T10:48:20;3.43;;;1.80;;
60612;SDS011;46443;59.792;17.626;2023-05-07T10:50:40;4.53;;;1.80;;
60612;SDS011;46443;59.792;17.626;2023-05-07T10:55:48;3.93;;;1.90;;
60612;SDS011;46443;59.792;17.626;2023-05-07T11:00:47;3.00;;;1.80;;
60612;SDS011;46443;59.792;17.626;2023-05-07T11:03:14;2.80;;;1.83;;
60612;SDS011;46443;59.792;17.626;2023-05-07T11:05:41;2.83;;;1.80;;
60612;SDS011;46443;59.792;17.626;2023-05-07T11:08:07;3.30;;;1.90;;
60612;SDS011;46443;59.792;17.626;2023-05-07T11:13:19;2.50;;;1.70;;
60612;SDS011;46443;59.792;17.626;2023-05-07T11:16:05;3.47;;;1.77;;
60612;SDS011;46443;59.792;17.626;2023-05-07T11:18:48;2.97;;;1.90;;
60612;SDS011;46443;59.792;17.626;2023-05-07T11:23:59;2.60;;;1.70;;
60612;SDS011;46443;59.792;17.626;2023-05-07T11:26:27;3.50;;;1.90;;
60612;SDS011;46443;59.792;17.626;2023-05-07T11:28:53;1.70;;;1.50;;
60612;SDS011;46443;59.792;17.626;2023-05-07T11:31:20;3.33;;;1.93;;
60612;SDS011;46443;59.792;17.626;2023-05-07T11:33:47;2.97;;;1.77;;
60612;SDS011;46443;59.792;17.626;2023-05-07T11:36:13;2.43;;;1.67;;
60612;SDS011;46443;59.792;17.626;2023-05-07T11:38:40;3.40;;;1.90;;
60612;SDS011;46443;59.792;17.626;2023-05-07T11:41:06;1.80;;;1.60;;
60612;SDS011;46443;59.792;17.626;2023-05-07T11:43:33;3.63;;;1.87;;
60612;SDS011;46443;59.792;17.626;2023-05-07T11:46:08;2.67;;;1.80;;
60612;SDS011;46443;59.792;17.626;2023-05-07T11:48:34;2.83;;;1.60;;
60612;SDS011;46443;59.792;17.626;2023-05-07T11:51:01;3.20;;;1.77;;
60612;SDS011;46443;59.792;17.626;2023-05-07T11:53:28;2.97;;;1.83;;
60612;SDS011;46443;59.792;17.626;2023-05-07T11:56:00;3.50;;;1.90;;
60612;SDS011;46443;59.792;17.626;2023-05-07T11:58:31;4.33;;;1.93;;
60612;SDS011;46443;59.792;17.626;2023-05-07T12:00:57;3.03;;;1.90;;
60612;SDS011;46443;59.792;17.626;2023-05-07T12:03:23;3.90;;;1.90;;
60612;SDS011;46443;59.792;17.626;2023-05-07T12:05:49;2.90;;;1.83;;
60612;SDS011;46443;59.792;17.626;2023-05-07T12:08:18;3.10;;;2.00;;
60612;SDS011;46443;59.792;17.626;2023-05-07T12:10:45;4.15;;;2.10;;
60612;SDS011;46443;59.792;17.626;2023-05-07T12:13:16;3.23;;;1.70;;
60612;SDS011;46443;59.792;17.626;2023-05-07T12:15:42;3.58;;;2.03;;
60612;SDS011;46443;59.792;17.626;2023-05-07T12:18:08;2.90;;;1.90;;
60612;SDS011;46443;59.792;17.626;2023-05-07T12:20:35;2.23;;;1.70;;
60612;SDS011;46443;59.792;17.626;2023-05-07T12:23:02;3.63;;;1.70;;
60612;SDS011;46443;59.792;17.626;2023-05-07T12:25:31;2.73;;;1.80;;
60612;SDS011;46443;59.792;17.626;2023-05-07T12:27:58;3.45;;;1.90;;
60612;SDS011;46443;59.792;17.626;2023-05-07T12:30:25;2.73;;;1.90;;
60612;SDS011;46443;59.792;17.626;2023-05-07T12:32:52;4.40;;;2.73;;
60612;SDS011;46443;59.792;17.626;2023-05-07T12:35:26;2.53;;;1.70;;
60612;SDS011;46443;59.792;17.626;2023-05-07T12:37:58;4.30;;;2.13;;
60612;SDS011;46443;59.792;17.626;2023-05-07T12:40:34;5.27;;;1.90;;
60612;SDS011;46443;59.792;17.626;2023-05-07T12:43:01;4.27;;;2.00;;
60612;SDS011;46443;59.792;17.626;2023-05-07T12:45:27;2.37;;;1.60;;
60612;SDS011;46443;59.792;17.626;2023-05-07T12:47:53;3.17;;;1.60;;
60612;SDS011;46443;59.792;17.626;2023-05-07T12:50:19;4.30;;;1.90;;
60612;SDS011;46443;59.792;17.626;2023-05-07T12:52:48;3.83;;;2.00;;
60612;SDS011;46443;59.792;17.626;2023-05-07T12:55:15;3.00;;;1.90;;
60612;SDS011;46443;59.792;17.626;2023-05-07T12:57:41;4.73;;;1.90;;
60612;SDS011;46443;59.792;17.626;2023-05-07T13:00:08;3.20;;;1.80;;
60612;SDS011;46443;59.792;17.626;2023-05-07T13:02:37;4.27;;;1.90;;
60612;SDS011;46443;59.792;17.626;2023-05-07T13:05:03;3.67;;;1.90;;
60612;SDS011;46443;59.792;17.626;2023-05-07T13:07:29;4.00;;;1.80;;
60612;SDS011;46443;59.792;17.626;2023-05-07T13:09:55;4.53;;;1.87;;
60612;SDS011;46443;59.792;17.626;2023-05-07T13:12:21;2.47;;;1.80;;
60612;SDS011;46443;59.792;17.626;2023-05-07T13:14:48;2.67;;;1.80;;
60612;SDS011;46443;59.792;17.626;2023-05-07T13:17:14;4.17;;;1.80;;
60612;SDS011;46443;59.792;17.626;2023-05-07T13:19:41;2.33;;;1.70;;
60612;SDS011;46443;59.792;17.626;2023-05-07T13:22:07;2.10;;;1.60;;
60612;SDS011;46443;59.792;17.626;2023-05-07T13:24:33;2.87;;;1.73;;
60612;SDS011;46443;59.792;17.626;2023-05-07T13:26:59;5.33;;;1.93;;
60612;SDS011;46443;59.792;17.626;2023-05-07T13:29:25;2.77;;;1.80;;
60612;SDS011;46443;59.792;17.626;2023-05-07T13:31:57;3.45;;;1.90;;
60612;SDS011;46443;59.792;17.626;2023-05-07T13:34:23;4.73;;;2.00;;
60612;SDS011;46443;59.792;17.626;2023-05-07T13:36:50;2.90;;;1.70;;
60612;SDS011;46443;59.792;17.626;2023-05-07T13:39:16;2.43;;;1.77;;
60612;SDS011;46443;59.792;17.626;2023-05-07T13:41:42;2.77;;;1.87;;
60612;SDS011;46443;59.792;17.626;2023-05-07T13:44:08;4.23;;;2.00;;
60612;SDS011;46443;59.792;17.626;2023-05-07T13:46:34;3.10;;;1.80;;
60612;SDS011;46443;59.792;17.626;2023-05-07T13:49:01;3.37;;;1.80;;
60612;SDS011;46443;59.792;17.626;2023-05-07T13:51:27;3.40;;;1.90;;
60612;SDS011;46443;59.792;17.626;2023-05-07T13:53:53;3.00;;;2.00;;
60612;SDS011;46443;59.792;17.626;2023-05-07T13:56:19;4.50;;;1.87;;
60612;SDS011;46443;59.792;17.626;2023-05-07T13:58:46;3.47;;;1.77;;
60612;SDS011;46443;59.792;17.626;2023-05-07T14:01:12;3.10;;;1.80;;
60612;SDS011;46443;59.792;17.626;2023-05-07T14:03:38;2.40;;;1.90;;
60612;SDS011;46443;59.792;17.626;2023-05-07T14:06:05;5.07;;;2.20;;
60612;SDS011;46443;59.792;17.626;2023-05-07T14:08:31;3.47;;;1.90;;
60612;SDS011;46443;59.792;17.626;2023-05-07T14:10:57;4.03;;;1.90;;
60612;SDS011;46443;59.792;17.626;2023-05-07T14:13:23;4.97;;;2.10;;
60612;SDS011;46443;59.792;17.626;2023-05-07T14:15:50;3.13;;;1.70;;
60612;SDS011;46443;59.792;17.626;2023-05-07T14:18:16;4.03;;;1.80;;
60612;SDS011;46443;59.792;17.626;2023-05-07T14:20:42;3.33;;;1.60;;
60612;SDS011;46443;59.792;17.626;2023-05-07T14:23:10;3.23;;;1.80;;
60612;SDS011;46443;59.792;17.626;2023-05-07T14:25:36;2.33;;;1.70;;
60612;SDS011;46443;59.792;17.626;2023-05-07T14:28:03;5.93;;;2.07;;
60612;SDS011;46443;59.792;17.626;2023-05-07T14:30:29;2.90;;;1.80;;
60612;SDS011;46443;59.792;17.626;2023-05-07T14:32:55;2.77;;;1.70;;
60612;SDS011;46443;59.792;17.626;2023-05-07T14:35:21;2.97;;;1.60;;
60612;SDS011;46443;59.792;17.626;2023-05-07T14:37:47;2.93;;;1.97;;
60612;SDS011;46443;59.792;17.626;2023-05-07T14:40:13;1.67;;;1.50;;
60612;SDS011;46443;59.792;17.626;2023-05-07T14:42:39;5.20;;;1.70;;